Terminal Aerodrome Forecast
Issued by NWS Anchorage, AK

Home | Current Version | Previous Version | Text Only | Print | Product List | Glossary On
Versions: 1 2 3 4 5 6 7 8 9 10 11 12 13 14 15 16 17 18 19 20 21 22 23 24 25 26 27 28 29 30 31 32 33 34 35 36 37 38 39 40 41 42 43 44 45 46 47 48 49
000
FTAK31 PANC 251417 AAC
TAFANC
TAF AMD
PANC 251417Z 2514/2618 25005KT P6SM -RA SCT015 SCT040 OVC060
      TEMPO 2514/2518 5SM -RA BR BKN015 OVC035
     FM252000 32005KT P6SM -RA SCT020 BKN035
     FM260300 23006KT P6SM SCT025 OVC050
     FM260600 18005KT P6SM SCT050 BKN080=

USA.gov is the U.S. government's official web portal to all federal, state and local government web resources and services.